Αναφορές METAR Αεροδρομίων

 

LGTS - THESSALONIKI - GREECE
Ενημερώθηκε: 26/09/2021 22:20
Αίθριος
Αίθριος
 Ανεμος από Α
Ανεμος: Α 4 km/h
Θερμοκρασία: 20°C
Σημείο Δρόσου: 14°C
Υγρασία: 69%
Βαρόμετρο: 1019 hPa
Περίληψη: Αίθριος
Visibility: greater than 10 km
2021/09/26 19:20 LGTS 261920Z 10002KT CAVOK 20/14 Q1019 NOSIG
LGLR - LARTISA - GREECE
Ενημερώθηκε: 26/09/2021 21:50
Αίθριος
Αίθριος
 Ανεμος από calm
Ανεμος: Απνοια
Θερμοκρασία: 19°C
Σημείο Δρόσου: 15°C
Υγρασία: 78%
Βαρόμετρο: 1018 hPa
Περίληψη: Αίθριος
Visibility: greater than 10 km
2021/09/26 18:50 LGLR 261850Z 00000KT CAVOK 19/15 Q1018 BLU
 
LGKZ - KOZANI - GREECE
Ενημερώθηκε: 26/09/2021 22:20

 Ανεμος από varies
Ανεμος: varies 6 km/h
Θερμοκρασία: 16°C
Σημείο Δρόσου: 7°C
Υγρασία: 55%
Βαρόμετρο: 1022 hPa
2021/09/26 19:20 LGKZ 261920Z AUTO VRB03KT //// // ////// 16/07 Q1022 RE//
LGKV - KAVALA - GREECE
Ενημερώθηκε: 26/09/2021 22:20
Αίθριος
Αίθριος
 Ανεμος από Α
Ανεμος: Α 6 km/h
Θερμοκρασία: 19°C
Σημείο Δρόσου: 16°C
Υγρασία: 83%
Βαρόμετρο: 1018 hPa
Περίληψη: Αίθριος
Visibility: greater than 10 km
2021/09/26 19:20 LGKV 261920Z 08003KT CAVOK 19/16 Q1018
 
LGIO - IOANNINA - GREECE
Ενημερώθηκε: 26/09/2021 22:20

 Ανεμος από varies
Ανεμος: varies 4 km/h
Θερμοκρασία: 18°C
Σημείο Δρόσου: 10°C
Υγρασία: 60%
Βαρόμετρο: 1021 hPa
2021/09/26 19:20 LGIO 261920Z AUTO VRB02KT //// // ////// 18/10 Q1021 RE//
LGBL - BOLOS - GREECE
Ενημερώθηκε: 26/09/2021 22:20
Αίθριος
Αίθριος
 Ανεμος από Δ
Ανεμος: Δ 7 km/h
Θερμοκρασία: 18°C
Σημείο Δρόσου: 14°C
Υγρασία: 78%
Βαρόμετρο: 1018 hPa
Περίληψη: Αίθριος
Visibility: greater than 10 km
2021/09/26 19:20 LGBL 261920Z 28004KT CAVOK 18/14 Q1018
 
LGMT - MITILINI - GREECE
Ενημερώθηκε: 26/09/2021 22:20
Αίθριος
Αίθριος
 Ανεμος από varies
Ανεμος: varies 6 km/h
Θερμοκρασία: 24°C
Σημείο Δρόσου: 11°C
Υγρασία: 44%
Βαρόμετρο: 1016 hPa
Περίληψη: Αίθριος
Visibility: greater than 10 km
2021/09/26 19:20 LGMT 261920Z VRB03KT CAVOK 24/11 Q1016
LGAV - ATHENS - GREECE
Ενημερώθηκε: 26/09/2021 22:20
Αίθριος
Αίθριος
 Ανεμος από varies
Ανεμος: varies 4 km/h
Θερμοκρασία: 20°C
Σημείο Δρόσου: 8°C
Υγρασία: 46%
Βαρόμετρο: 1019 hPa
Περίληψη: Αίθριος
Visibility: greater than 10 km
2021/09/26 19:20 LGAV 261920Z VRB02KT CAVOK 20/08 Q1019 NOSIG
 
LGRP - RODOS - GREECE
Ενημερώθηκε: 26/09/2021 22:20
Αραιές Νεφώσεις
Αραιές Νεφώσεις
 Ανεμος από Δ
Ανεμος: Δ 11 km/h
Θερμοκρασία: 23°C
Σημείο Δρόσου: 18°C
Υγρασία: 74%
Βαρόμετρο: 1014 hPa
Clouds: Αραιές Νεφώσεις
Visibility: 10 km
Cloud details: Αραιές Νεφώσεις 549 m
2021/09/26 19:20 LGRP 261920Z 27006KT 9999 FEW018 23/18 Q1014 NOSIG
LGIR - HRAKLIO/KRITI - GREECE
Ενημερώθηκε: 26/09/2021 22:20
Αίθριος
Αίθριος
 Ανεμος από ΔΒΔ
Ανεμος: ΔΒΔ 19 km/h
Θερμοκρασία: 23°C
Σημείο Δρόσου: 21°C
Υγρασία: 89%
Βαρόμετρο: 1017 hPa
Περίληψη: Αίθριος
Visibility: greater than 10 km
2021/09/26 19:20 LGIR 261920Z 30010KT CAVOK 23/21 Q1017 NOSIG
 
LGMK - MIKONOS - GREECE
Ενημερώθηκε: 26/09/2021 22:20
Αίθριος
Αίθριος
 Ανεμος από Β
Ανεμος: Β 19 km/h
Θερμοκρασία: 23°C
Σημείο Δρόσου: 14°C
Υγρασία: 57%
Βαρόμετρο: 1017 hPa
Περίληψη: Αίθριος
Visibility: greater than 10 km
2021/09/26 19:20 LGMK 261920Z 36010KT CAVOK 23/14 Q1017
LGKR - KERKIRA - GREECE
Ενημερώθηκε: 26/09/2021 22:20
Αίθριος
Αίθριος
 Ανεμος από calm
Ανεμος: Απνοια
Θερμοκρασία: 20°C
Σημείο Δρόσου: 16°C
Υγρασία: 78%
Βαρόμετρο: 1018 hPa
Περίληψη: Αίθριος
Visibility: greater than 10 km
2021/09/26 19:20 LGKR 261920Z 00000KT CAVOK 20/16 Q1018 NOSIG